Aeroporto :
LOGIN :

Iscrizione | Disclaimer

   EN    FR    IT 

 










Sommario :    VFR   VFR Marginale   IFR   IFR Intensivo   IFR Molto Intensivo
Visibilità : 
Base nubi : 
>= 8 km
>= 3000ft
5 / 8 km
1000 / 3000 ft
1500m / 5 km
500 / 1000 ft
800 / 1500m
200 / 500 ft
< 800m
< 200 ft
Simboli :   Temporali  Nebbia  Neve Forte  Precipitazioni Forti  Vento > 20 kt
SIGMETs :   Varie  Temporali  Ghiacco  Turbolenza  Onda orograficha  Ceneri Vulcaniche







- Altitudine del aeroporto : 13 ft
- Codice IATA : GOA


LIMJ - Genoa Cristoforo Colombo

ULTIMO METAR :
  • 201320Z 19004KT 150V230 9999 FEW030 14/06 Q1025

METARs OBSOLETI :
  • 201250Z 20005KT 9999 FEW030 14/06 Q1025
  • 201220Z 20004KT 160V220 9999 FEW030 14/06 Q1025
  • 201150Z 20004KT 160V240 9999 FEW030 14/06 Q1025
  • 201120Z 18004KT 140V200 9999 FEW030 14/05 Q1025
  • 201050Z 15004KT 9999 FEW030 14/06 Q1025
  • 201020Z VRB04KT 9999 FEW030 13/05 Q1025

TAF TAF LIMJ
Valido dal 20 a 12 ore il 21 a 12 ore UTC


201100Z 2012/2112 14008KT CAVOK
Nessun NOTAM noto per questo aeroporto.



MetMap, La meteo Aeronautica in un colpo d'occhio ! - Copyright ORBIFLY Dicembre 2007 - Disclaimer

ORBIFLY MET'MAP TEAM :

Programmazione e sviluppo : Alexandra Zaïnal
Concezione e sviluppo : Baudouin d'Aumeries
Co-Programmazione e sviluppo : Marc-Olivier Méhu
Supporto tecnico e logistico : Manuel Goepfert
Aiuto per la traduzione : Arnaldo La Scala

Contatto : metmap@orbifly.com




FONTI E CREDITI :

   NOAA